Tiempo atmosférico en la estación meteorológica de Velilla del Río Carrión, Camporredondo de Alba, Palencia (1575 m.)



Fecha
DESCASC
Temp. máxima en grados centígrados (hora)
DESCASC
Temp. mínima en grados centígrados (hora)
DESCASC
Temp. media en grados centígrados
DESCASC
Racha de viento máxima en m/sg (hora)
DESCASC
Velocidad máxima media en intervalos de 10 minutos(hora)
DESCASC
Precipitaciones diarias en mm
DESCASC
Precipitaciones de 00:00 a 06:00 en mm
DESCASC
Precipitaciones de 06:00 a 12:00 en mm
DESCASC
Precipitaciones de 12:00 a 18:00 en mm
DESCASC
Precipitaciones de 18:00 a 24:00 en mm
DESCASC
24-09-2020 12.9 (16:00) 4.5 (23:59) 8.7 20 (14:30) 13.33 (13:00) 2 0 0 0 2
23-09-2020 14.6 (17:30) 8.3 (00:00) 11.5 11.67 (14:00) 8.33 (14:00) 3 0 0 3 0
22-09-2020 15.3 (11:20) 7.7 (00:00) 11.5 9.17 (15:10) 5.28 (15:10) 0.2 0.2 0 0 0
21-09-2020 16.2 (13:20) 6.8 (00:00) 11.5 7.22 (13:30) 4.44 (13:50) 7.6 0.2 0 7.4 0
20-09-2020 17.3 (13:50) 8.6 (00:00) 12.9 5 (14:10) 3.33 (02:20) 1.2 0 0 1 0.2
19-09-2020 15.3 (18:30) 7.3 (00:00) 11.3 10.56 (14:00) 6.39 (14:10) 6.6 6.6 0 0 0
18-09-2020 17.7 (16:50) 7.6 (00:00) 12.7 18.06 (02:10) 12.22 (02:10) 19.4 1.8 16.6 0 1
17-09-2020 18.9 (17:40) 12.2 (00:00) 15.5 12.78 (22:50) 6.67 (21:40) 1.4 1.4 0 0 0
16-09-2020 24 (16:40) 13 (05:50) 18.5 8.89 (13:20) 4.72 (13:30) 0 0 0 0 0
15-09-2020 21.2 (16:30) 10.5 (00:00) 15.9 15 (01:50) 8.33 (01:50) 5.2 5.2 0 0 0
14-09-2020 22.9 (16:40) 11.5 (00:00) 17.2 21.11 (21:40) 10.83 (21:40) 2.6 0 0 0 2.6
13-09-2020 26.9 (16:10) 12.3 (00:00) 19.6 11.11 (16:30) 7.5 (16:50) 0 0 0 0 0
12-09-2020 26.4 (17:00) 13.6 (07:20) 20 7.78 (14:00) 4.17 (22:50) 0 0 0 0 0
11-09-2020 25.1 (17:30) 9.1 (00:00) 17.1 5.56 (21:00) 3.89 (08:10) 0 0 0 0 0
10-09-2020 23.7 (16:30) 10.8 (00:00) 17.3 6.67 (02:10) 4.72 (04:10) 0 0 0 0 0
09-09-2020 24.4 (17:30) 10.3 (08:00) 17.3 7.5 (14:00) 4.72 (01:20) 0 0 0 0 0
08-09-2020 20.6 (18:00) 7.1 (00:00) 13.9 8.89 (00:10) 5.56 (00:10) 0 0 0 0 0
07-09-2020 16.8 (16:40) 5.7 (08:10) 11.2 12.22 (23:50) 7.78 (21:50) 0 0 0 0 0
06-09-2020 22.2 (16:40) 7.7 (00:00) 15 14.44 (15:20) 6.67 (17:00) 0 0 0 0 0
05-09-2020 25 (15:50) 10.1 (00:00) 17.6 7.22 (14:10) 5.28 (14:10) 0 0 0 0 0
04-09-2020 26.5 (17:10) 14 (00:00) 20.3 8.89 (14:50) 6.11 (13:20) 0 0 0 0 0
03-09-2020 26.5 (16:50) 11.3 (00:00) 18.9 6.94 (16:30) 3.89 (19:00) 0 0 0 0 0
02-09-2020 23.4 (18:30) 6.6 (00:00) 15 6.67 (16:40) 3.61 (20:10) 0 0 0 0 0
01-09-2020 19.7 (16:40) 8.3 (00:00) 14 8.33 (17:50) 5.56 (20:20) 0 0 0 0 0
31-08-2020 16.5 (17:30) 3.6 (00:00) 10 8.89 (13:50) 5 (14:10) 0 0 0 0 0
30-08-2020 11.8 (13:20) 3.1 (00:00) 7.5 6.39 (00:10) 4.72 (00:10) 0.2 0 0 0.2 0
29-08-2020 10.6 (15:00) 4.1 (00:00) 7.4 10.83 (01:40) 7.78 (02:00) 5.2 0 0.2 4.8 0.2
28-08-2020 19.9 (16:40) 6.5 (00:00) 13.2 12.22 (17:30) 6.94 (17:20) 0 0 0 0 0
27-08-2020 25.6 (17:00) 13.8 (00:00) 19.7 11.39 (18:00) 8.06 (18:10) 0 0 0 0 0
26-08-2020 25.7 (17:40) 14.1 (00:00) 19.9 8.89 (17:10) 5.28 (16:00) 0 0 0 0 0

Gráficas

Temp. máximas Temp. mínimas Temp. medias Precipitaciones Rachas de viento máximas Velocidades máximas media en intervalos de 10 minutos

Datos horarios

Fecha y hora oficial Temperatura (ºC) Velocidad del viento (km/h) Dirección del viento Racha (km/h) Dirección de racha Precipitación (mm) Presión (hPa) Tendencia (hPa) Humedad (%)
2020-09-24 23:00:00 5.4 14 Oeste 33 Noroeste 0.6 -- -- 97
2020-09-24 22:00:00 5.7 21 Noroeste 44 Oeste 0.6 -- -- 95
2020-09-24 21:00:00 6.8 28 Oeste 50 Oeste 0 -- -- 85
2020-09-24 20:00:00 7.8 26 Oeste 51 Oeste 0 -- -- 81
2020-09-24 19:00:00 10.1 31 Oeste 54 Oeste 0 -- -- 71
2020-09-24 18:00:00 10.6 32 Oeste 60 Oeste 0 -- -- 66
2020-09-24 17:00:00 10.5 33 Oeste 56 Oeste 0 -- -- 63
2020-09-24 16:00:00 12.9 27 Oeste 70 Oeste 0 -- -- 53
2020-09-24 15:00:00 12 38 Oeste 72 Oeste 0 -- -- 58
2020-09-24 14:00:00 11 44 Oeste 67 Oeste 0 -- -- 63
2020-09-24 13:00:00 10.1 48 Oeste 67 Oeste 0 -- -- 68
2020-09-24 12:00:00 9.1 35 Oeste 53 Oeste 0 -- -- 77
2020-09-24 11:00:00 7.9 26 Oeste 39 Oeste 0 -- -- 91
2020-09-24 10:00:00 6.3 14 Oeste 30 Oeste 0 -- -- 98
2020-09-24 09:00:00 5.4 22 Oeste 32 Oeste 0 -- -- 99
2020-09-24 08:00:00 5.4 16 Oeste 27 Oeste 0 -- -- 98
2020-09-24 07:00:00 5.8 15 Oeste 21 Noroeste 0 -- -- 96
2020-09-24 06:00:00 6.5 13 Oeste 22 Noroeste 0 -- -- 93
2020-09-24 05:00:00 7.7 15 Noroeste 21 Noroeste 0 -- -- 88
2020-09-24 04:00:00 7.8 11 Oeste 18 Oeste 0 -- -- 91
2020-09-24 03:00:00 8.6 16 Oeste 23 Oeste 0 -- -- 85
2020-09-24 02:00:00 8.8 15 Oeste 20 Oeste 0 -- -- 83
2020-09-24 01:00:00 9.6 18 Oeste 25 Oeste 0 -- -- 81
2020-09-24 00:00:00 9.4 17 Oeste 24 Oeste 0 -- -- 91
2020-09-23 23:00:00 9.9 18 Oeste 27 Oeste 0 -- -- 88
2020-09-23 22:00:00 10.2 10 Oeste 21 Noroeste 0 -- -- 89
2020-09-23 21:00:00 10.6 17 Oeste 40 Oeste 0 -- -- 87
2020-09-23 20:00:00 11.3 18 Oeste 37 Oeste 0 -- -- 83
2020-09-23 19:00:00 13.1 18 Oeste 32 Oeste 0 -- -- 79
2020-09-23 18:00:00 13.5 21 Oeste 40 Oeste 0 -- -- 81
2020-09-23 17:00:00 13.9 20 Oeste 35 Oeste 0 -- -- 83
2020-09-23 16:00:00 10.6 21 Oeste 33 Oeste 2.8 -- -- 97
2020-09-23 15:00:00 11.1 19 Oeste 38 Oeste 0.2 -- -- 91
2020-09-23 14:00:00 11.5 30 Oeste 42 Sudoeste 0 -- -- 97
2020-09-23 13:00:00 10.1 18 Oeste 27 Oeste 0 -- -- 98
2020-09-23 12:00:00 9.9 13 Oeste 33 Noroeste 0 -- -- 99
2020-09-23 11:00:00 9.5 15 Oeste 33 Oeste 0 -- -- 99
2020-09-23 10:00:00 9.1 22 Oeste 41 Oeste 0 -- -- 99
2020-09-23 09:00:00 8.8 17 Noroeste 28 Oeste 0 -- -- 99
2020-09-23 08:00:00 8.6 19 Oeste 28 Oeste 0 -- -- 98
2020-09-23 07:00:00 8.5 18 Oeste 26 Oeste 0 -- -- 97
2020-09-23 06:00:00 9.4 18 Oeste 26 Oeste 0 -- -- 92
2020-09-23 05:00:00 9.6 12 Oeste 22 Oeste 0 -- -- 90
2020-09-23 04:00:00 9.3 16 Oeste 22 Oeste 0 -- -- 89
2020-09-23 03:00:00 9.7 16 Oeste 24 Oeste 0 -- -- 87
2020-09-23 02:00:00 8.8 13 Oeste 20 Oeste 0 -- -- 92
2020-09-23 01:00:00 9.1 13 Oeste 21 Oeste 0 -- -- 92
2020-09-23 00:00:00 9.7 14 Oeste 19 Oeste 0 -- -- 87
2020-09-22 23:00:00 10.3 8 Noroeste 18 Oeste 0 -- -- 84
2020-09-22 22:00:00 10.5 11 Oeste 26 Oeste 0 -- -- 84
2020-09-22 21:00:00 10.7 14 Oeste 23 Oeste 0 -- -- 81
2020-09-22 20:00:00 11.2 15 Oeste 24 Oeste 0 -- -- 79
2020-09-22 19:00:00 12.1 15 Oeste 30 Oeste 0 -- -- 72
2020-09-22 18:00:00 13.6 19 Oeste 31 Sudoeste 0 -- -- 69
2020-09-22 17:00:00 12.4 15 Oeste 23 Oeste 0 -- -- 74
2020-09-22 16:00:00 13 9 Oeste 33 Oeste 0 -- -- 76
2020-09-22 15:00:00 13.9 15 Sudoeste 26 Oeste 0 -- -- 73
2020-09-22 14:00:00 13.2 10 Sudoeste 23 Sudoeste 0 -- -- 78
2020-09-22 13:00:00 14.5 9 Sudoeste 15 Sudoeste 0 -- -- 74
2020-09-22 12:00:00 11.1 5 Oeste 9 Oeste 0 -- -- 84
2020-09-22 11:00:00 13.2 4 Oeste 8 Oeste 0 -- -- 75
2020-09-22 10:00:00 11.8 4 Noroeste 14 Norte 0 -- -- 79
2020-09-22 09:00:00 7.8 4 Oeste 6 Oeste 0 -- -- 95
2020-09-22 08:00:00 7.7 2 Oeste 4 Sudoeste 0 -- -- 97
2020-09-22 07:00:00 7.7 3 Norte 6 Oeste 0 -- -- 95
2020-09-22 06:00:00 7.9 3 Oeste 4 Oeste 0 -- -- 97
2020-09-22 05:00:00 8.4 0 Calma 3 Sudeste 0.2 -- -- 97
2020-09-22 04:00:00 8.4 3 Nordeste 5 Nordeste 0 -- -- 98
2020-09-22 03:00:00 8.8 3 Este 6 Este 0 -- -- 97
2020-09-22 02:00:00 8.7 3 Este 5 Este 0 -- -- 96
2020-09-22 01:00:00 9 4 Este 9 Este 0 -- -- 98
2020-09-22 00:00:00 8.9 6 Este 9 Este 0 -- -- 98
2020-09-21 23:00:00 9.3 6 Este 12 Este 0 -- -- 96
2020-09-21 22:00:00 9.6 7 Este 12 Este 0 -- -- 94
2020-09-21 21:00:00 10.1 5 Sudeste 13 Este 0 -- -- 91
2020-09-21 20:00:00 11.1 2 Sudeste 6 Sudoeste 0 -- -- 86
2020-09-21 19:00:00 12.8 0 Calma 8 Sudoeste 0 -- -- 87
2020-09-21 18:00:00 11.9 0 Calma 6 Sudoeste 0.2 -- -- 90
2020-09-21 17:00:00 12.6 4 Sudoeste 8 Sur 0 -- -- 86
2020-09-21 16:00:00 11.5 2 Nordeste 10 Sur 0.2 -- -- 91
2020-09-21 15:00:00 10.3 9 Sur 18 Noroeste 6.8 -- -- 96
2020-09-21 14:00:00 11.3 15 Oeste 26 Oeste 0.2 -- -- 89
2020-09-21 13:00:00 15 10 Sudoeste 18 Sudoeste 0 -- -- 81
2020-09-21 12:00:00 13.1 5 Sudoeste 10 Oeste 0 -- -- 88
2020-09-21 11:00:00 10.7 4 Este 6 Este 0 -- -- 96
2020-09-21 10:00:00 10.2 0 Calma 4 Sudoeste 0 -- -- 96
2020-09-21 09:00:00 8.3 0 Calma 5 Sudoeste 0 -- -- 98
2020-09-21 08:00:00 7.3 3 Oeste 5 Sudoeste 0 -- -- 99
2020-09-21 07:00:00 7.4 0 Calma 4 Nordeste 0 -- -- 99
2020-09-21 06:00:00 7 0 Calma 4 Norte 0 -- -- 99
2020-09-21 05:00:00 7.8 3 Sudoeste 6 Oeste 0 -- -- 99
2020-09-21 04:00:00 7.8 0 Calma 4 Oeste 0 -- -- 99
2020-09-21 03:00:00 8.4 3 Nordeste 6 Nordeste 0 -- -- 99
2020-09-21 02:00:00 8.4 0 Calma 8 Oeste 0.2 -- -- 99
2020-09-21 01:00:00 8.9 2 Sur 12 Oeste 0 -- -- 98
2020-09-21 00:00:00 9.4 10 Oeste 14 Oeste 0 -- -- 98
2020-09-20 23:00:00 9.9 5 Oeste 8 Oeste 0 -- -- 97
2020-09-20 22:00:00 10 0 Calma 8 Este 0 -- -- 97
2020-09-20 21:00:00 10.1 3 Este 12 Oeste 0 -- -- 97
2020-09-20 20:00:00 10.5 4 Oeste 10 Oeste 0 -- -- 96
2020-09-20 19:00:00 11.3 0 Calma 7 Este 0.2 -- -- 90
2020-09-20 18:00:00 11 0 Calma 6 Noroeste 0.4 -- -- 95
2020-09-20 17:00:00 11.5 0 Calma 8 Oeste 0.2 -- -- 94
2020-09-20 16:00:00 12.2 3 Oeste 13 Este 0.2 -- -- 91
2020-09-20 15:00:00 12.9 5 Sur 18 Este 0 -- -- 76
2020-09-20 14:00:00 16.8 5 Sur 16 Este 0 -- -- 60
2020-09-20 13:00:00 14.3 4 Sudeste 12 Sudeste 0.2 -- -- 79
2020-09-20 12:00:00 12.1 2 Sudeste 5 Este 0 -- -- 85
2020-09-20 11:00:00 12.7 0 Calma 5 Oeste 0 -- -- 76
2020-09-20 10:00:00 11.2 4 Oeste 7 Oeste 0 -- -- 81
2020-09-20 09:00:00 9.5 5 Noroeste 11 Noroeste 0 -- -- 84
2020-09-20 08:00:00 9 9 Noroeste 10 Noroeste 0 -- -- 83
2020-09-20 07:00:00 8.6 6 Oeste -- -- 0 -- -- 84
2020-09-20 06:00:00 9 5 Noroeste 9 Oeste 0 -- -- 80
2020-09-20 05:00:00 9.4 8 Oeste 10 Oeste 0 -- -- 78
2020-09-20 04:00:00 9.4 8 Noroeste 10 Oeste 0 -- -- 80
2020-09-20 03:00:00 9 9 Oeste 13 Oeste 0 -- -- 85
2020-09-20 02:00:00 9.2 6 Noroeste 11 Oeste 0 -- -- 81
2020-09-20 01:00:00 9.4 9 Oeste 13 Oeste 0 -- -- 77
2020-09-20 00:00:00 9.4 10 Oeste 19 Oeste 0 -- -- 82
2020-09-19 23:00:00 9.4 17 Oeste 20 Oeste 0 -- -- 95
2020-09-19 22:00:00 10.3 10 Oeste 20 Oeste 0 -- -- 87
2020-09-19 21:00:00 10.5 11 Noroeste 22 Noroeste 0 -- -- 85
2020-09-19 20:00:00 11.2 17 Noroeste 28 Noroeste 0 -- -- 75
2020-09-19 19:00:00 12.2 22 Oeste 35 Oeste 0 -- -- 70
2020-09-19 18:00:00 14.2 19 Oeste 32 Oeste 0 -- -- 68
2020-09-19 17:00:00 11.3 18 Oeste 30 Oeste 0 -- -- 84
2020-09-19 16:00:00 13 15 Noroeste 33 Noroeste 0 -- -- 77
2020-09-19 15:00:00 13.1 18 Noroeste 36 Noroeste 0 -- -- 78
2020-09-19 14:00:00 11.3 23 Noroeste 38 Noroeste 0 -- -- 93
2020-09-19 13:00:00 9.9 17 Oeste 27 Noroeste 0 -- -- 96
2020-09-19 12:00:00 11.4 9 Oeste 14 Oeste 0 -- -- 96
2020-09-19 11:00:00 8.2 10 Oeste 14 Oeste 0 -- -- 99
2020-09-19 10:00:00 8.1 0 Calma 6 Oeste 0 -- -- 98
2020-09-19 09:00:00 7.6 2 Oeste 12 Sudoeste 0 -- -- 99
2020-09-19 08:00:00 7.4 7 Oeste 10 Oeste 0 -- -- 99
2020-09-19 07:00:00 7.6 6 Oeste 15 Norte 0 -- -- 99
2020-09-19 06:00:00 7.6 12 Noroeste 17 Noroeste 0 -- -- 98
2020-09-19 05:00:00 7.7 12 Oeste 17 Noroeste 0 -- -- 98
2020-09-19 04:00:00 7.8 12 Oeste 19 Oeste 0.2 -- -- 98
2020-09-19 03:00:00 8.1 9 Sudoeste 19 Oeste 2.2 -- -- 98
2020-09-19 02:00:00 8.2 14 Sudoeste 24 Sudoeste 3 -- -- 97
2020-09-19 01:00:00 8.7 3 Este 11 Sudeste 1.2 -- -- 95
2020-09-19 00:00:00 8.9 3 Sur 10 Sudeste 0.2 -- -- 91
2020-09-18 23:00:00 9.1 8 Este 30 Sudoeste 0.2 -- -- 96
2020-09-18 22:00:00 9.2 26 Sudoeste 56 Sudoeste 0.6 -- -- 95
2020-09-18 21:00:00 12.1 11 Sur 18 Sur 0 -- -- 74
2020-09-18 20:00:00 12.6 5 Sur 22 Sudoeste 0 -- -- 71
2020-09-18 19:00:00 13.2 13 Sudoeste 29 Sudoeste 0 -- -- 70
2020-09-18 18:00:00 13.9 16 Sudoeste 36 Sudoeste 0 -- -- 71
2020-09-18 17:00:00 16.6 12 Oeste 32 Oeste 0 -- -- 60
2020-09-18 16:00:00 14.5 11 Sudoeste 41 Oeste 0 -- -- 71
2020-09-18 15:00:00 16.1 23 Oeste 41 Oeste 0 -- -- 65
2020-09-18 14:00:00 14.3 25 Sudoeste 45 Oeste 0 -- -- 65
2020-09-18 13:00:00 11.3 18 Oeste 42 Sudoeste 0 -- -- 83
2020-09-18 12:00:00 10.7 31 Sudoeste 55 Oeste 0 -- -- 81
2020-09-18 11:00:00 10.3 11 Sudoeste 21 Oeste 0 -- -- 86
2020-09-18 10:00:00 9.6 11 Oeste 31 Oeste 0.2 -- -- 96
2020-09-18 09:00:00 7.6 13 Noroeste 57 Oeste 2 -- -- 98
2020-09-18 08:00:00 10 23 Oeste 47 Sudoeste 4.4 -- -- 98
2020-09-18 07:00:00 10.2 3 Sudeste 24 Sudoeste 10 -- -- 97
2020-09-18 06:00:00 10.5 10 Sur 24 Sur 0 -- -- 94
2020-09-18 05:00:00 10.2 4 Sudeste 26 Sur 0 -- -- 95
2020-09-18 04:00:00 10.5 14 Sudoeste 31 Sudoeste 0.2 -- -- 94
2020-09-18 03:00:00 10.8 13 Sudoeste 65 Sudoeste 0.2 -- -- 94
2020-09-18 02:00:00 11.7 33 Sudoeste 60 Sudoeste 1.4 -- -- 93
2020-09-18 01:00:00 14.5 30 Sudoeste 45 Sudoeste 0 -- -- 76
2020-09-18 00:00:00 15.3 18 Sudoeste 35 Sur 0 -- -- 73
2020-09-17 23:00:00 15.8 19 Sudoeste 46 Sudoeste 0 -- -- 71
2020-09-17 22:00:00 16.7 21 Sur 45 Sur 0 -- -- 66
2020-09-17 21:00:00 16.2 8 Sudeste 18 Sudeste 0 -- -- 69
2020-09-17 20:00:00 16.2 8 Sudeste 26 Sur 0 -- -- 72
2020-09-17 19:00:00 17.2 16 Sur 27 Sudoeste 0 -- -- 67
2020-09-17 18:00:00 17.4 18 Sudoeste 33 Sur 0 -- -- 69
2020-09-17 17:00:00 17.6 20 Sudoeste 33 Sudoeste 0 -- -- 69
2020-09-17 16:00:00 16.1 17 Sur 29 Sur 0 -- -- 73
2020-09-17 15:00:00 18.3 15 Sudoeste 42 Sudoeste 0 -- -- 64
2020-09-17 14:00:00 16.6 18 Sudoeste 40 Sur 0 -- -- 72
2020-09-17 13:00:00 16.4 21 Sudoeste 39 Sudoeste 0 -- -- 72
2020-09-17 12:00:00 18.1 15 Sudoeste 30 Sur 0 -- -- 69
2020-09-17 11:00:00 14.7 16 Este 26 Este 0 -- -- 85
2020-09-17 10:00:00 13.4 12 Este 23 Sudeste 0 -- -- 81
2020-09-17 09:00:00 13.4 14 Este 21 Sudeste 0 -- -- 79
2020-09-17 08:00:00 12.7 12 Este 20 Este 0 -- -- 84
2020-09-17 07:00:00 12.2 14 Este 17 Este 0 -- -- 92
2020-09-17 06:00:00 12.3 9 Sudeste 15 Este 0.2 -- -- 93
2020-09-17 05:00:00 12.4 15 Sudoeste 41 Sur 0.4 -- -- 93
2020-09-17 04:00:00 14 11 Sudeste 29 Este 0.8 -- -- 84
2020-09-17 03:00:00 15.1 15 Sudeste 27 Sudeste 0 -- -- 77
2020-09-17 02:00:00 15.5 7 Sudeste 24 Este 0 -- -- 70
2020-09-17 01:00:00 15.4 8 Sudeste 21 Este 0 -- -- 69
2020-09-17 00:00:00 15.2 6 Sudeste 21 Este 0 -- -- 65
2020-09-16 23:00:00 15.4 13 Este 23 Sudeste 0 -- -- 59
2020-09-16 22:00:00 15.9 13 Este 23 Este 0 -- -- 54
2020-09-16 21:00:00 16 15 Este 20 Este 0 -- -- 56
2020-09-16 20:00:00 17.6 11 Este 13 Sudeste 0 -- -- 49
2020-09-16 19:00:00 19.4 3 Sur 24 Sudoeste 0 -- -- 44
2020-09-16 18:00:00 22.1 7 Sur 28 Este 0 -- -- 38
2020-09-16 17:00:00 22.2 5 Sur 22 Sudoeste 0 -- -- 45
2020-09-16 16:00:00 23.6 7 Sudoeste 18 Sudoeste 0 -- -- 41
2020-09-16 15:00:00 23 7 Oeste 21 Sudoeste 0 -- -- 41
2020-09-16 14:00:00 20 9 Sudoeste 32 Oeste 0 -- -- 49
2020-09-16 13:00:00 20.2 14 Sudoeste 28 Sudoeste 0 -- -- 44
2020-09-16 12:00:00 19.7 8 Sudoeste 16 Sudoeste 0 -- -- 52
2020-09-16 11:00:00 18.6 3 Nordeste 8 Este 0 -- -- 52
2020-09-16 10:00:00 18.2 4 Sudoeste 6 Sudoeste 0 -- -- 52
2020-09-16 09:00:00 14.4 2 Sudeste 3 Este 0 -- -- 68
2020-09-16 08:00:00 14.1 3 Este 5 Este 0 -- -- 69
2020-09-16 07:00:00 13.3 0 Calma 5 Este 0 -- -- 73
2020-09-16 06:00:00 13.4 6 Este 9 Este 0 -- -- 73
2020-09-16 05:00:00 13.3 7 Este 9 Este 0 -- -- 74
2020-09-16 04:00:00 14.2 8 Sur 13 Sudoeste 0 -- -- 71
2020-09-16 03:00:00 14.4 8 Sur 12 Sur 0 -- -- 70
2020-09-16 02:00:00 14.5 4 Sudoeste 6 Sudoeste 0 -- -- 70
2020-09-16 01:00:00 14.9 3 Sur 8 Sur 0 -- -- 68
2020-09-16 00:00:00 14.9 7 Sur 14 Sur 0 -- -- 69
2020-09-15 23:00:00 15 5 Sur 14 Sur 0 -- -- 68
2020-09-15 22:00:00 15 8 Sur 10 Sur 0 -- -- 68
2020-09-15 21:00:00 15.5 7 Sudoeste 13 Oeste 0 -- -- 64
2020-09-15 20:00:00 16 11 Oeste 20 Oeste 0 -- -- 63
2020-09-15 19:00:00 17.3 13 Oeste 30 Oeste 0 -- -- 60
2020-09-15 18:00:00 19 14 Oeste 27 Oeste 0 -- -- 56
2020-09-15 17:00:00 19.7 23 Oeste 38 Oeste 0 -- -- 51
2020-09-15 16:00:00 20.1 18 Oeste 38 Oeste 0 -- -- 53
2020-09-15 15:00:00 19.3 18 Oeste 35 Oeste 0 -- -- 63
2020-09-15 14:00:00 20.2 18 Oeste 31 Oeste 0 -- -- 58
2020-09-15 13:00:00 18.3 9 Oeste 27 Oeste 0 -- -- 70
2020-09-15 12:00:00 16.9 7 Sudoeste 17 Oeste 0 -- -- 71
2020-09-15 11:00:00 16.7 3 Oeste 8 Sudoeste 0 -- -- 67
2020-09-15 10:00:00 15 0 Calma 10 Sur 0 -- -- 71
2020-09-15 09:00:00 12 5 Oeste 14 Oeste 0 -- -- 80
2020-09-15 08:00:00 12.2 8 Oeste 13 Oeste 0 -- -- 77
2020-09-15 07:00:00 11.9 2 Noroeste 10 Noroeste 0 -- -- 80
2020-09-15 06:00:00 10.9 5 Noroeste 15 Norte 0 -- -- 94
2020-09-15 05:00:00 10.7 8 Norte 12 Norte 0.4 -- -- 97
2020-09-15 04:00:00 10.6 5 Este 16 Este 0 -- -- 97
2020-09-15 03:00:00 10.7 12 Este 27 Sudoeste 3.4 -- -- 96
2020-09-15 02:00:00 11 20 Sudoeste 54 Sur 0.8 -- -- 94
2020-09-15 01:00:00 12 10 Sudeste 17 Nordeste 0.6 -- -- 82
2020-09-15 00:00:00 14 5 Sudeste 28 Este 0.8 -- -- 70
2020-09-14 23:00:00 11.5 26 Este 34 Este 0 -- -- 91
2020-09-14 22:00:00 12.1 21 Sur 76 Sudoeste 1.8 -- -- 90
2020-09-14 21:00:00 18.1 9 Sudeste 17 Sur 0 -- -- 53
2020-09-14 20:00:00 18.4 12 Sur 35 Sudoeste 0 -- -- 52
2020-09-14 19:00:00 20.5 19 Sudoeste 31 Sur 0 -- -- 46
2020-09-14 18:00:00 19.9 13 Sudoeste 23 Sudoeste 0 -- -- 47
2020-09-14 17:00:00 20.9 12 Sudoeste 24 Sudoeste 0 -- -- 46
2020-09-14 16:00:00 20.4 18 Sudoeste 33 Sudoeste 0 -- -- 53
2020-09-14 15:00:00 18 6 Sur 24 Oeste 0 -- -- 62
2020-09-14 14:00:00 19.3 16 Sudoeste 26 Sudoeste 0 -- -- 53
2020-09-14 13:00:00 21.7 12 Sudoeste 23 Sudoeste 0 -- -- 46
2020-09-14 12:00:00 21.1 13 Sudoeste 22 Sudoeste 0 -- -- 47
2020-09-14 11:00:00 19 14 Sudoeste 24 Sudoeste 0 -- -- 52
2020-09-14 10:00:00 18.3 12 Sudoeste 22 Sudoeste 0 -- -- 52
2020-09-14 09:00:00 16.4 6 Sudoeste 26 Oeste 0 -- -- 56
2020-09-14 08:00:00 16.3 20 Sudoeste 41 Oeste 0 -- -- 54
2020-09-14 07:00:00 16.2 14 Sudoeste 31 Sudoeste 0 -- -- 56
2020-09-14 06:00:00 16.6 13 Sudoeste 24 Sudoeste 0 -- -- 50
2020-09-14 05:00:00 16.5 15 Sudoeste 26 Oeste 0 -- -- 49
2020-09-14 04:00:00 17.8 17 Sudoeste 33 Sudoeste 0 -- -- 46
2020-09-14 03:00:00 18.6 17 Sudoeste 32 Sudoeste 0 -- -- 44
2020-09-14 02:00:00 18.2 9 Sudoeste 30 Sudoeste 0 -- -- 46
2020-09-14 01:00:00 20 8 Sur 14 Sudoeste 0 -- -- 38
2020-09-14 00:00:00 19.6 5 Sur 7 Sudoeste 0 -- -- 40
2020-09-13 23:00:00 20.3 0 Calma 4 Este 0 -- -- 39
2020-09-13 22:00:00 19.9 2 Nordeste 5 Oeste 0 -- -- 41
2020-09-13 21:00:00 20.6 4 Oeste 13 Oeste 0 -- -- 39
2020-09-13 20:00:00 21.3 11 Oeste 24 Oeste 0 -- -- 38
2020-09-13 19:00:00 23 16 Oeste 31 Noroeste 0 -- -- 34
2020-09-13 18:00:00 26.1 19 Oeste 35 Oeste 0 -- -- 29
2020-09-13 17:00:00 26 22 Oeste 40 Oeste 0 -- -- 29
2020-09-13 16:00:00 26.7 23 Oeste 38 Oeste 0 -- -- 28
2020-09-13 15:00:00 25.9 19 Oeste 37 Oeste 0 -- -- 30
2020-09-13 14:00:00 24.9 18 Oeste 33 Oeste 0 -- -- 30
2020-09-13 13:00:00 24.5 12 Oeste 23 Oeste 0 -- -- 32
2020-09-13 12:00:00 23.4 4 Oeste 10 Noroeste 0 -- -- 37
2020-09-13 11:00:00 21.7 3 Sudeste 7 Este 0 -- -- 42
2020-09-13 10:00:00 19.1 4 Sudeste 10 Sur 0 -- -- 42
2020-09-13 09:00:00 16.3 4 Sur 9 Este 0 -- -- 46
2020-09-13 08:00:00 14.7 7 Este 11 Este 0 -- -- 40
2020-09-13 07:00:00 15.3 8 Este 12 Este 0 -- -- 30
2020-09-13 06:00:00 13.9 10 Este 15 Este 0 -- -- 43
2020-09-13 05:00:00 12.5 14 Este 15 Este 0 -- -- 56
2020-09-13 04:00:00 12.6 9 Este 12 Este 0 -- -- 57
2020-09-13 03:00:00 14.4 5 Este 9 Este 0 -- -- 52
2020-09-13 02:00:00 14.4 8 Este 10 Este 0 -- -- 52
2020-09-13 01:00:00 14.7 8 Este 14 Este 0 -- -- 52
2020-09-13 00:00:00 14.9 11 Este 17 Este 0 -- -- 52
2020-09-12 23:00:00 14.8 13 Este 19 Este 0 -- -- 54
2020-09-12 22:00:00 16.2 11 Este 16 Este 0 -- -- 49
2020-09-12 21:00:00 17.2 7 Sudeste 21 Sur 0 -- -- 43
2020-09-12 20:00:00 19.5 8 Sudeste 18 Este 0 -- -- 37
2020-09-12 19:00:00 23.7 6 Sur 19 Este 0 -- -- 29
2020-09-12 18:00:00 24.2 9 Sur 22 Sudoeste 0 -- -- 29
2020-09-12 17:00:00 26.4 7 Oeste 26 Oeste 0 -- -- 28
2020-09-12 16:00:00 25.7 9 Oeste 22 Oeste 0 -- -- 28
2020-09-12 15:00:00 23.5 8 Oeste 27 Sudoeste 0 -- -- 31
2020-09-12 14:00:00 24 14 Sudoeste 28 Sudoeste 0 -- -- 29
2020-09-12 13:00:00 24.2 8 Oeste 19 Sudoeste 0 -- -- 31
2020-09-12 12:00:00 22.6 3 Sudoeste 9 Oeste 0 -- -- 37
2020-09-12 11:00:00 20.5 4 Oeste 8 Oeste 0 -- -- 38
2020-09-12 10:00:00 18.7 2 Oeste 4 Noroeste 0 -- -- 39
2020-09-12 09:00:00 14.9 2 Noroeste 6 Oeste 0 -- -- 45
2020-09-12 08:00:00 14.4 0 Calma 4 Sudoeste 0 -- -- 48
2020-09-12 07:00:00 14.4 2 Sudoeste 4 Noroeste 0 -- -- 47
2020-09-12 06:00:00 14.4 0 Calma 4 Oeste 0 -- -- 48
2020-09-12 05:00:00 14.6 0 Calma 4 Oeste 0 -- -- 49
2020-09-12 04:00:00 14.4 0 Calma 3 Nordeste 0 -- -- 48
2020-09-12 03:00:00 15.2 0 Calma -- -- 0 -- -- 45
2020-09-12 02:00:00 14.8 2 Sur -- -- 0 -- -- 52
2020-09-12 01:00:00 14.7 3 Este 8 Este 0 -- -- 50
2020-09-12 00:00:00 14.5 6 Este 9 Este 0 -- -- 55
2020-09-11 23:00:00 15.2 4 Este 7 Este 0 -- -- 55
2020-09-11 22:00:00 15.3 7 Este 18 Sudeste 0 -- -- 54
2020-09-11 21:00:00 17 14 Este 20 Este 0 -- -- 43
2020-09-11 20:00:00 18.7 8 Sur 17 Sur 0 -- -- 44
2020-09-11 19:00:00 20.4 6 Sudeste 17 Este 0 -- -- 37
2020-09-11 18:00:00 23.8 6 Sur 16 Este 0 -- -- 32
2020-09-11 17:00:00 22.1 6 Sudoeste 13 Oeste 0 -- -- 39
2020-09-11 16:00:00 20.8 5 Sudeste 17 Este 0 -- -- 43
2020-09-11 15:00:00 20.8 3 Oeste 16 Noroeste 0 -- -- 48
2020-09-11 14:00:00 23.3 4 Nordeste 17 Sudoeste 0 -- -- 36
2020-09-11 13:00:00 20 9 Oeste 16 Oeste 0 -- -- 49
2020-09-11 12:00:00 19.5 5 Oeste 12 Este 0 -- -- 50
2020-09-11 11:00:00 15.2 7 Este 12 Este 0 -- -- 66
2020-09-11 10:00:00 12.8 9 Este 12 Este 0 -- -- 70
2020-09-11 09:00:00 10.4 10 Este 17 Este 0 -- -- 76
2020-09-11 08:00:00 9.7 13 Este 16 Este 0 -- -- 75
2020-09-11 07:00:00 9.5 12 Este 14 Este 0 -- -- 66
2020-09-11 06:00:00 10.8 10 Este 12 Este 0 -- -- 63
2020-09-11 05:00:00 11.1 9 Este 14 Este 0 -- -- 65
2020-09-11 04:00:00 11.3 13 Este 17 Este 0 -- -- 66
2020-09-11 03:00:00 11.2 8 Este 13 Sudeste 0 -- -- 71
2020-09-11 02:00:00 12.8 5 Este 8 Este 0 -- -- 71
2020-09-11 01:00:00 13.2 4 Este 7 Este 0 -- -- 70
2020-09-11 00:00:00 13.3 2 Este 11 Este 0 -- -- 73
2020-09-10 23:00:00 13.6 9 Este 10 Este 0 -- -- 71
2020-09-10 22:00:00 14.2 6 Este 12 Este 0 -- -- 69
2020-09-10 21:00:00 15.3 8 Este 10 Este 0 -- -- 65
2020-09-10 20:00:00 18 3 Sudoeste 12 Sur 0 -- -- 57
2020-09-10 19:00:00 18.7 5 Sudeste 18 Sudeste 0 -- -- 54
2020-09-10 18:00:00 20.7 8 Sudeste 22 Sudeste 0 -- -- 47
2020-09-10 17:00:00 22.3 9 Sudoeste 24 Sudoeste 0 -- -- 41
2020-09-10 16:00:00 21.8 5 Oeste 15 Sudoeste 0 -- -- 41
2020-09-10 15:00:00 22.9 8 Sudoeste 21 Oeste 0 -- -- 41
2020-09-10 14:00:00 22.2 8 Oeste 20 Oeste 0 -- -- 40
2020-09-10 13:00:00 21.1 7 Oeste 17 Oeste 0 -- -- 42
2020-09-10 12:00:00 18.9 5 Oeste 14 Oeste 0 -- -- 44
2020-09-10 11:00:00 18.9 4 Noroeste 9 Noroeste 0 -- -- 49
2020-09-10 10:00:00 18 0 Calma 2 Nordeste 0 -- -- 49
2020-09-10 09:00:00 12.5 0 Calma 8 Este 0 -- -- 59
2020-09-10 08:00:00 12.8 7 Este 10 Este 0 -- -- 59
2020-09-10 07:00:00 11.7 8 Este 12 Este 0 -- -- 57
2020-09-10 06:00:00 11.2 8 Este 13 Este 0 -- -- 59
2020-09-10 05:00:00 12.5 13 Este 19 Este 0 -- -- 54
2020-09-10 04:00:00 12.2 16 Este 18 Este 0 -- -- 51
2020-09-10 03:00:00 11.3 15 Este 24 Este 0 -- -- 56
2020-09-10 02:00:00 12 14 Sudeste 22 Este 0 -- -- 55
2020-09-10 01:00:00 12.7 13 Este 19 Este 0 -- -- 53
2020-09-10 00:00:00 14 9 Sudeste 14 Sudeste 0 -- -- 53
2020-09-09 23:00:00 14.1 5 Sudeste 10 Este 0 -- -- 58
2020-09-09 22:00:00 15.4 8 Este 14 Este 0 -- -- 55
2020-09-09 21:00:00 16 4 Sudeste 18 Este 0 -- -- 52
2020-09-09 20:00:00 17.6 6 Sur 17 Sur 0 -- -- 47
2020-09-09 19:00:00 18.4 8 Sudeste 19 Sudeste 0 -- -- 49
2020-09-09 18:00:00 22.1 7 Sudeste 19 Sur 0 -- -- 37
2020-09-09 17:00:00 22.4 9 Sur 21 Sudoeste 0 -- -- 33
2020-09-09 16:00:00 23.3 6 Este 26 Sudoeste 0 -- -- 31
2020-09-09 15:00:00 22.1 5 Sudeste 21 Sur 0 -- -- 34
2020-09-09 14:00:00 21.7 10 Sur 27 Sur 0 -- -- 35
2020-09-09 13:00:00 22.5 5 Sudoeste 18 Este 0 -- -- 33
2020-09-09 12:00:00 18.6 7 Este 16 Nordeste 0 -- -- 39
2020-09-09 11:00:00 19.1 3 Oeste 8 Sudeste 0 -- -- 44
2020-09-09 10:00:00 15.8 3 Este 8 Sudeste 0 -- -- 43
2020-09-09 09:00:00 11.4 4 Oeste 5 Oeste 0 -- -- 54
2020-09-09 08:00:00 10.3 0 Calma 4 Este 0 -- -- 57
2020-09-09 07:00:00 11 4 Este 9 Sudeste 0 -- -- 55
2020-09-09 06:00:00 11.7 0 Calma 6 Este 0 -- -- 52
2020-09-09 05:00:00 11.9 3 Este 7 Nordeste 0 -- -- 52
2020-09-09 04:00:00 11.5 3 Sudeste 9 Sudeste 0 -- -- 54
2020-09-09 03:00:00 12.5 5 Este 16 Este 0 -- -- 49
2020-09-09 02:00:00 11.2 14 Este 20 Este 0 -- -- 57
2020-09-09 01:00:00 10.6 16 Este 19 Este 0 -- -- 61
2020-09-09 00:00:00 11.9 12 Este 18 Este 0 -- -- 58
2020-09-08 23:00:00 12 15 Este 18 Este 0 -- -- 58
2020-09-08 22:00:00 12.4 11 Este 14 Este 0 -- -- 58
2020-09-08 21:00:00 13.8 5 Este 11 Sur 0 -- -- 51
2020-09-08 20:00:00 16 8 Sur 15 Este 0 -- -- 45
2020-09-08 19:00:00 18.7 6 Sudeste 18 Sudeste 0 -- -- 40
2020-09-08 18:00:00 20.6 6 Sudeste 16 Este 0 -- -- 32
2020-09-08 17:00:00 19.4 7 Sudeste 18 Sur 0 -- -- 37
2020-09-08 16:00:00 18.7 10 Sur 24 Este 0 -- -- 42
2020-09-08 15:00:00 18.7 9 Sudeste 27 Este 0 -- -- 42
2020-09-08 14:00:00 18.7 9 Sudeste 24 Este 0 -- -- 41
2020-09-08 13:00:00 17.9 9 Sudeste 32 Sudeste 0 -- -- 36
2020-09-08 12:00:00 15.3 13 Sudeste 31 Sudeste 0 -- -- 38
2020-09-08 11:00:00 15.6 10 Sudeste 25 Sudeste 0 -- -- 33
2020-09-08 10:00:00 12.4 7 Sudeste 22 Este 0 -- -- 44
2020-09-08 09:00:00 9 9 Sudeste 21 Sudeste 0 -- -- 46
2020-09-08 08:00:00 8.3 8 Sudeste 21 Este 0 -- -- 39
2020-09-08 07:00:00 8.6 8 Sudeste 22 Este 0 -- -- 37
2020-09-08 06:00:00 7.9 16 Este 24 Este 0 -- -- 40
2020-09-08 05:00:00 8.2 6 Sudeste 17 Este 0 -- -- 38
2020-09-08 04:00:00 8.6 3 Sudeste 10 Sudeste 0 -- -- 38
2020-09-08 03:00:00 8.1 6 Sudeste 25 Sudeste 0 -- -- 41
2020-09-08 02:00:00 8.5 12 Sudeste 26 Sudeste 0 -- -- 42
2020-09-08 01:00:00 8.5 12 Sudeste 32 Este 0 -- -- 43
2020-09-08 00:00:00 9.4 16 Sudeste 44 Sudeste 0 -- -- 42
2020-09-07 23:00:00 10.7 15 Este 41 Este 0 -- -- 41
2020-09-07 22:00:00 11.1 28 Este 42 Este 0 -- -- 43
2020-09-07 21:00:00 10.3 14 Sudeste 26 Este 0 -- -- 49
2020-09-07 20:00:00 12.2 14 Sudeste 27 Este 0 -- -- 51
2020-09-07 19:00:00 14.9 13 Sudeste 23 Sudeste 0 -- -- 46
2020-09-07 18:00:00 16.5 9 Sudeste 28 Este 0 -- -- 45
2020-09-07 17:00:00 15.8 10 Sudeste 34 Este 0 -- -- 49
2020-09-07 16:00:00 16.6 10 Sudeste 34 Este 0 -- -- 49
2020-09-07 15:00:00 15.6 15 Sudeste 35 Sudeste 0 -- -- 53
2020-09-07 14:00:00 15.4 13 Sudeste 34 Este 0 -- -- 52
2020-09-07 13:00:00 15.2 9 Sudeste 28 Este 0 -- -- 48
2020-09-07 12:00:00 14 8 Sur 24 Sur 0 -- -- 56
2020-09-07 11:00:00 12.7 8 Sur 19 Sur 0 -- -- 61
2020-09-07 10:00:00 10.1 6 Sudeste 13 Este 0 -- -- 66
2020-09-07 09:00:00 7.1 3 Sur 18 Sur 0 -- -- 78
2020-09-07 08:00:00 5.8 9 Sur 15 Sur 0 -- -- 83
2020-09-07 07:00:00 6.1 0 Calma 9 Este 0 -- -- 85
2020-09-07 06:00:00 5.9 3 Sur 17 Sudeste 0 -- -- 87
2020-09-07 05:00:00 6.6 5 Sudeste 19 Este 0 -- -- 83
2020-09-07 04:00:00 6.9 12 Nordeste 24 Este 0 -- -- 80
2020-09-07 03:00:00 7 15 Este 23 Este 0 -- -- 79
2020-09-07 02:00:00 7.6 6 Sudeste 31 Este 0 -- -- 72
2020-09-07 01:00:00 7.5 25 Este 32 Este 0 -- -- 76
2020-09-07 00:00:00 7.7 14 Este 23 Este 0 -- -- 71
2020-09-06 23:00:00 8.3 3 Sudeste 10 Sudeste 0 -- -- 81
2020-09-06 22:00:00 9.3 6 Nordeste 14 Nordeste 0 -- -- 75
2020-09-06 21:00:00 11.2 2 Norte 23 Oeste 0 -- -- 69
2020-09-06 20:00:00 14.1 17 Oeste 29 Oeste 0 -- -- 61
2020-09-06 19:00:00 18.5 14 Oeste 28 Oeste 0 -- -- 53
2020-09-06 18:00:00 20.7 13 Noroeste 36 Noroeste 0 -- -- 36
2020-09-06 17:00:00 20.3 24 Noroeste 42 Oeste 0 -- -- 32
2020-09-06 16:00:00 19.6 9 Este 52 Sudoeste 0 -- -- 51
2020-09-06 15:00:00 21.2 9 Noroeste 23 Oeste 0 -- -- 53
2020-09-06 14:00:00 20.7 7 Sudoeste 16 Oeste 0 -- -- 52
2020-09-06 13:00:00 18.9 5 Sudeste 14 Sudeste 0 -- -- 58
2020-09-06 12:00:00 17.6 4 Oeste 13 Este 0 -- -- 62
2020-09-06 11:00:00 15.7 3 Este 9 Este 0 -- -- 69
2020-09-06 10:00:00 11.1 4 Este 8 Nordeste 0 -- -- 88
2020-09-06 09:00:00 8.5 4 Este 7 Este 0 -- -- 98
2020-09-06 08:00:00 7.9 7 Nordeste 11 Este 0 -- -- 98
2020-09-06 07:00:00 7.7 6 Este 14 Este 0 -- -- 98
2020-09-06 06:00:00 8 0 Calma 8 Este 0 -- -- 98
2020-09-06 05:00:00 8.5 7 Este 9 Este 0 -- -- 98
2020-09-06 04:00:00 8.8 8 Nordeste 10 Nordeste 0 -- -- 97
2020-09-06 03:00:00 9.4 2 Nordeste 5 Noroeste 0 -- -- 97
2020-09-06 02:00:00 9.5 2 Nordeste 7 Nordeste 0 -- -- 97
2020-09-06 01:00:00 9.9 3 Noroeste 8 Noroeste 0 -- -- 96
2020-09-06 00:00:00 10.1 5 Norte 13 Nordeste 0 -- -- 95
2020-09-05 23:00:00 11 2 Este 17 Este 0 -- -- 91
2020-09-05 22:00:00 11.6 10 Nordeste 15 Este 0 -- -- 90
2020-09-05 21:00:00 13.1 10 Nordeste 13 Nordeste 0 -- -- 84
2020-09-05 20:00:00 16.7 3 Este 15 Este 0 -- -- 72
2020-09-05 19:00:00 18.5 9 Este 24 Sudeste 0 -- -- 67
2020-09-05 18:00:00 19.7 17 Este 24 Este 0 -- -- 64
2020-09-05 17:00:00 20.6 15 Este 24 Sudeste 0 -- -- 62
2020-09-05 16:00:00 24.8 8 Sur 19 Sudoeste 0 -- -- 48
2020-09-05 15:00:00 20.2 11 Este 26 Este 0 -- -- 62
2020-09-05 14:00:00 21.6 13 Este 23 Este 0 -- -- 55
2020-09-05 13:00:00 21.8 13 Este 23 Sudeste 0 -- -- 51
2020-09-05 12:00:00 20.6 12 Este 18 Este 0 -- -- 50
2020-09-05 11:00:00 18.2 7 Este 10 Este 0 -- -- 55
2020-09-05 10:00:00 18.1 3 Sudeste 9 Este 0 -- -- 52
2020-09-05 09:00:00 14.1 9 Nordeste 12 Este 0 -- -- 60
2020-09-05 08:00:00 15.4 0 Calma 6 Noroeste 0 -- -- 52
2020-09-05 07:00:00 14.7 2 Noroeste 11 Este 0 -- -- 51
2020-09-05 06:00:00 15.1 7 Este 13 Este 0 -- -- 49
2020-09-05 05:00:00 15.2 12 Este 14 Este 0 -- -- 49
2020-09-05 04:00:00 15.8 9 Este 12 Este 0 -- -- 48
2020-09-05 03:00:00 15.8 9 Este 11 Este 0 -- -- 47
2020-09-05 02:00:00 16.2 8 Este 17 Este 0 -- -- 46
2020-09-05 01:00:00 16.2 10 Este 15 Este 0 -- -- 48
2020-09-05 00:00:00 16.5 9 Este 13 Este 0 -- -- 48
2020-09-04 23:00:00 17.6 10 Este 13 Este 0 -- -- 46
2020-09-04 22:00:00 18.8 6 Este 14 Sudoeste 0 -- -- 43
2020-09-04 21:00:00 20.2 12 Oeste 19 Oeste 0 -- -- 34
2020-09-04 20:00:00 22.5 11 Oeste 24 Oeste 0 -- -- 34
2020-09-04 19:00:00 25.5 15 Oeste 26 Oeste 0 -- -- 29
2020-09-04 18:00:00 26 9 Noroeste 26 Oeste 0 -- -- 31
2020-09-04 17:00:00 26.1 13 Oeste 29 Oeste 0 -- -- 28
2020-09-04 16:00:00 25.3 17 Oeste 32 Oeste 0 -- -- 30
2020-09-04 15:00:00 24.3 15 Oeste 32 Oeste 0 -- -- 31
2020-09-04 14:00:00 24 15 Oeste 31 Oeste 0 -- -- 31
2020-09-04 13:00:00 23 20 Oeste 31 Noroeste 0 -- -- 30
2020-09-04 12:00:00 22.7 14 Oeste 24 Oeste 0 -- -- 31
2020-09-04 11:00:00 23.2 5 Noroeste 11 Noroeste 0 -- -- 31
2020-09-04 10:00:00 22.6 0 Calma 3 Oeste 0 -- -- 32
2020-09-04 09:00:00 17.7 0 Calma 4 Sudoeste 0 -- -- 33
2020-09-04 08:00:00 15.7 0 Calma 3 Noroeste 0 -- -- 38
2020-09-04 07:00:00 15.5 3 Oeste 4 Oeste 0 -- -- 40
2020-09-04 06:00:00 15.6 0 Calma 6 Este 0 -- -- 38
2020-09-04 05:00:00 16.3 6 Este 10 Este 0 -- -- 38
2020-09-04 04:00:00 14.3 6 Este 12 Este 0 -- -- 48
2020-09-04 03:00:00 15.6 11 Este 14 Este 0 -- -- 46
2020-09-04 02:00:00 16.1 12 Este 14 Este 0 -- -- 50
2020-09-04 01:00:00 15.7 12 Este 17 Este 0 -- -- 56
2020-09-04 00:00:00 15.5 13 Este 15 Este 0 -- -- 57
2020-09-03 23:00:00 17.2 5 Este 13 Sur 0 -- -- 51
2020-09-03 22:00:00 18.8 8 Sur 11 Sur 0 -- -- 43
2020-09-03 21:00:00 19.8 6 Oeste 13 Oeste 0 -- -- 38
2020-09-03 20:00:00 21.8 10 Oeste 20 Oeste 0 -- -- 36
2020-09-03 19:00:00 24.7 14 Oeste 24 Sudoeste 0 -- -- 33
2020-09-03 18:00:00 25.6 10 Oeste 20 Oeste 0 -- -- 33
2020-09-03 17:00:00 25.8 11 Sudoeste 25 Oeste 0 -- -- 35
2020-09-03 16:00:00 25.5 9 Sudoeste 19 Oeste 0 -- -- 37
2020-09-03 15:00:00 25 5 Sudoeste 14 Este 0 -- -- 41
2020-09-03 14:00:00 23.7 6 Oeste 19 Oeste 0 -- -- 36
2020-09-03 13:00:00 22 7 Sudoeste 15 Sudoeste 0 -- -- 39
2020-09-03 12:00:00 20.4 4 Oeste 10 Noroeste 0 -- -- 48
2020-09-03 11:00:00 19.1 3 Noroeste 10 Noroeste 0 -- -- 55
2020-09-03 10:00:00 15.9 5 Noroeste 9 Noroeste 0 -- -- 62
2020-09-03 09:00:00 14.4 4 Noroeste 6 Noroeste 0 -- -- 62
2020-09-03 08:00:00 11.5 0 Calma 6 Norte 0 -- -- 62
2020-09-03 07:00:00 12.1 6 Noroeste 10 Noroeste 0 -- -- 62
2020-09-03 06:00:00 12 0 Calma 2 Nordeste 0 -- -- 81
2020-09-03 05:00:00 12.1 0 Calma 3 Sur 0 -- -- 80
2020-09-03 04:00:00 12.2 0 Calma 5 Este 0 -- -- 84
2020-09-03 03:00:00 11.5 0 Calma 7 Norte 0 -- -- 89
2020-09-03 02:00:00 11.6 0 Calma 7 Oeste 0 -- -- 86
2020-09-03 01:00:00 12.5 6 Noroeste 13 Norte 0 -- -- 84
2020-09-03 00:00:00 12.2 3 Norte 5 Norte 0 -- -- 85
2020-09-02 23:00:00 12.9 5 Este 8 Este 0 -- -- 84
2020-09-02 22:00:00 12.9 7 Este 12 Este 0 -- -- 84
2020-09-02 21:00:00 14 9 Este 19 Este 0 -- -- 76
2020-09-02 20:00:00 16 10 Este 20 Sudoeste 0 -- -- 68
2020-09-02 19:00:00 22.4 11 Oeste 20 Oeste 0 -- -- 42
2020-09-02 18:00:00 23.3 5 Oeste 22 Sudoeste 0 -- -- 42
2020-09-02 17:00:00 22.5 12 Oeste 24 Oeste 0 -- -- 45
2020-09-02 16:00:00 21.5 10 Oeste 21 Sudoeste 0 -- -- 48
2020-09-02 15:00:00 20.8 6 Sur 17 Oeste 0 -- -- 48
2020-09-02 14:00:00 19.1 6 Sur 21 Sudeste 0 -- -- 51
2020-09-02 13:00:00 18.7 4 Sur 12 Sudeste 0 -- -- 48
2020-09-02 12:00:00 15.9 7 Sudoeste 12 Sudoeste 0 -- -- 51
2020-09-02 11:00:00 16 3 Nordeste 9 Este 0 -- -- 54
2020-09-02 10:00:00 10.5 8 Este 12 Este 0 -- -- 68
2020-09-02 09:00:00 9.2 5 Este 10 Este 0 -- -- 71
2020-09-02 08:00:00 6.9 7 Este 9 Este 0 -- -- 77
2020-09-02 07:00:00 7.5 4 Este 8 Este 0 -- -- 66
2020-09-02 06:00:00 8.2 4 Este 8 Este 0 -- -- 60
2020-09-02 05:00:00 7.6 8 Este 10 Este 0 -- -- 69
2020-09-02 04:00:00 7.9 6 Este 10 Este 0 -- -- 68
2020-09-02 03:00:00 9 8 Este 12 Este 0 -- -- 66
2020-09-02 02:00:00 9 7 Este 14 Este 0 -- -- 77
2020-09-02 01:00:00 9.4 8 Este 10 Este 0 -- -- 68
2020-09-02 00:00:00 9.5 4 Este 8 Este 0 -- -- 85
2020-09-01 23:00:00 9.7 3 Sudoeste 17 Este 0 -- -- 84
2020-09-01 22:00:00 10.3 10 Este 18 Este 0 -- -- 83
2020-09-01 21:00:00 11.2 15 Este 27 Este 0 -- -- 80
2020-09-01 20:00:00 12.5 17 Sudeste 26 Este 0 -- -- 75
2020-09-01 19:00:00 14.4 7 Sudeste 28 Este 0 -- -- 68
2020-09-01 18:00:00 15.5 14 Sudeste 30 Este 0 -- -- 62
2020-09-01 17:00:00 19 13 Sudoeste 22 Sudoeste 0 -- -- 44
2020-09-01 16:00:00 17.9 7 Sur 22 Este 0 -- -- 47
2020-09-01 15:00:00 17 5 Sur 17 Nordeste 0 -- -- 44
2020-09-01 14:00:00 17.4 7 Sudoeste 16 Sur 0 -- -- 42
2020-09-01 13:00:00 18.2 7 Sudeste 16 Este 0 -- -- 42
2020-09-01 12:00:00 18 6 Sudoeste 14 Sudoeste 0 -- -- 43
2020-09-01 11:00:00 16.6 4 Sudeste 13 Este 0 -- -- 51
2020-09-01 10:00:00 15.8 2 Oeste 4 Sudeste 0 -- -- 54
2020-09-01 09:00:00 13.7 0 Calma 5 Noroeste 0 -- -- 55
2020-09-01 08:00:00 9.4 4 Noroeste 7 Norte 0 -- -- 66
2020-09-01 07:00:00 8.8 4 Noroeste 5 Noroeste 0 -- -- 66
2020-09-01 06:00:00 9.3 0 Calma 3 Sudoeste 0 -- -- 69
2020-09-01 05:00:00 9.2 2 Este 7 Este 0 -- -- 69
2020-09-01 04:00:00 8.5 3 Este 4 Este 0 -- -- 72
2020-09-01 03:00:00 9.5 0 Calma 4 Oeste 0 -- -- 69
2020-09-01 02:00:00 9.6 4 Nordeste -- -- 0 -- -- 68
2020-09-01 01:00:00 10 0 Calma 8 Sudoeste 0 -- -- 68
2020-09-01 00:00:00 9.7 5 Norte 9 Noroeste 0 -- -- 70
2020-08-31 23:00:00 10.3 2 Noroeste 10 Noroeste 0 -- -- 66
2020-08-31 22:00:00 11.3 8 Noroeste 16 Oeste 0 -- -- 60
2020-08-31 21:00:00 11.3 11 Oeste 18 Noroeste 0 -- -- 64
2020-08-31 20:00:00 12.8 8 Noroeste 21 Oeste 0 -- -- 58
2020-08-31 19:00:00 14.5 12 Oeste 26 Oeste 0 -- -- 56
2020-08-31 18:00:00 13.3 10 Noroeste 23 Oeste 0 -- -- 56
2020-08-31 17:00:00 16.4 12 Oeste 27 Oeste 0 -- -- 47
2020-08-31 16:00:00 15.6 14 Oeste 26 Sudoeste 0 -- -- 51
2020-08-31 15:00:00 14.6 15 Oeste 29 Oeste 0 -- -- 53
2020-08-31 14:00:00 14 16 Oeste 32 Oeste 0 -- -- 57
2020-08-31 13:00:00 13.1 14 Noroeste 27 Oeste 0 -- -- 58
2020-08-31 12:00:00 12 14 Oeste 27 Oeste 0 -- -- 64
2020-08-31 11:00:00 10.3 8 Oeste 19 Noroeste 0 -- -- 70
2020-08-31 10:00:00 7.7 12 Noroeste 17 Noroeste 0 -- -- 76
2020-08-31 09:00:00 6.4 10 Oeste 17 Oeste 0 -- -- 79
2020-08-31 08:00:00 3.8 12 Oeste 17 Oeste 0 -- -- 90
2020-08-31 07:00:00 4 5 Oeste 10 Oeste 0 -- -- 88
2020-08-31 06:00:00 4.1 0 Calma 3 Oeste 0 -- -- 89
2020-08-31 05:00:00 4.1 0 Calma 2 Oeste 0 -- -- 90
2020-08-31 04:00:00 4 2 Nordeste 4 Nordeste 0 -- -- 90
2020-08-31 03:00:00 3.8 0 Calma 6 Este 0 -- -- 91
2020-08-31 02:00:00 4.5 5 Este 9 Este 0 -- -- 91
2020-08-31 01:00:00 4.5 7 Este 12 Este 0 -- -- 93
2020-08-31 00:00:00 4.2 4 Este 8 Este 0 -- -- 94
2020-08-30 23:00:00 5.6 4 Noroeste 8 Noroeste 0 -- -- 87
2020-08-30 22:00:00 5.9 2 Noroeste 6 Norte 0 -- -- 87
2020-08-30 21:00:00 7.4 2 Este 6 Este 0 -- -- 77
2020-08-30 20:00:00 8.4 6 Este 9 Este 0 -- -- 73
2020-08-30 19:00:00 8.2 6 Oeste 16 Noroeste 0 -- -- 80
2020-08-30 18:00:00 10.7 3 Norte 12 Oeste 0 -- -- 66
2020-08-30 17:00:00 10.7 4 Oeste 18 Este 0.2 -- -- 67
2020-08-30 16:00:00 10.8 7 Este 17 Oeste 0 -- -- 68
2020-08-30 15:00:00 10.9 7 Noroeste 17 Noroeste 0 -- -- 66
2020-08-30 14:00:00 9.3 5 Sudoeste 17 Sur 0 -- -- 71
2020-08-30 13:00:00 8.3 4 Sudeste 13 Sudeste 0 -- -- 79
2020-08-30 12:00:00 8.6 4 Noroeste 19 Oeste 0 -- -- 73
2020-08-30 11:00:00 7.6 12 Oeste 22 Oeste 0 -- -- 76
2020-08-30 10:00:00 6.1 8 Oeste 13 Oeste 0 -- -- 94
2020-08-30 09:00:00 4.1 2 Oeste 7 Noroeste 0 -- -- 97
2020-08-30 08:00:00 3.6 2 Oeste 9 Noroeste 0 -- -- 97
2020-08-30 07:00:00 3.5 9 Noroeste 15 Oeste 0 -- -- 97
2020-08-30 06:00:00 3.6 10 Noroeste 13 Oeste 0 -- -- 93
2020-08-30 05:00:00 3.6 3 Oeste 9 Sudoeste 0 -- -- 90
2020-08-30 04:00:00 4.2 4 Nordeste 12 Noroeste 0 -- -- 85
2020-08-30 03:00:00 3.7 8 Oeste 18 Sudoeste 0 -- -- 89
2020-08-30 02:00:00 3.6 12 Oeste 17 Oeste 0 -- -- 89
2020-08-30 01:00:00 4.2 5 Noroeste 23 Noroeste 0 -- -- 83
2020-08-30 00:00:00 4.2 15 Noroeste 26 Norte 0 -- -- 85
2020-08-29 23:00:00 4.2 17 Noroeste 24 Norte 0 -- -- 89
2020-08-29 22:00:00 5 12 Noroeste 21 Norte 0 -- -- 81
2020-08-29 21:00:00 5.7 12 Norte 22 Norte 0 -- -- 80
2020-08-29 20:00:00 6.8 11 Norte 27 Norte 0 -- -- 78
2020-08-29 19:00:00 9.9 12 Norte 25 Norte 0.2 -- -- 76
2020-08-29 18:00:00 7.3 10 Oeste 24 Oeste 1 -- -- 94
2020-08-29 17:00:00 6.1 14 Noroeste 38 Noroeste 1.6 -- -- 92
2020-08-29 16:00:00 8 11 Noroeste 28 Oeste 0.6 -- -- 93
2020-08-29 15:00:00 10.6 10 Noroeste 21 Oeste 0.2 -- -- 88
2020-08-29 14:00:00 8.8 9 Noroeste 26 Oeste 1 -- -- 95
2020-08-29 13:00:00 6.4 15 Oeste 25 Noroeste 0.4 -- -- 93
2020-08-29 12:00:00 6.7 14 Noroeste 32 Norte 0.2 -- -- 92
2020-08-29 11:00:00 7 13 Oeste 22 Oeste 0 -- -- 89
2020-08-29 10:00:00 6.6 15 Oeste 27 Oeste 0 -- -- 85
2020-08-29 09:00:00 5.3 16 Noroeste 25 Noroeste 0 -- -- 89
2020-08-29 08:00:00 5.5 10 Noroeste 26 Norte 0 -- -- 80
2020-08-29 07:00:00 5.2 17 Noroeste 23 Noroeste 0 -- -- 87
2020-08-29 06:00:00 5.4 12 Oeste 24 Noroeste 0 -- -- 86
2020-08-29 05:00:00 5.5 13 Noroeste 24 Noroeste 0 -- -- 86
2020-08-29 04:00:00 5.7 14 Noroeste 23 Norte 0 -- -- 84
2020-08-29 03:00:00 6.2 10 Norte 34 Norte 0 -- -- 75
2020-08-29 02:00:00 6.4 28 Norte 39 Norte 0 -- -- 69
2020-08-29 01:00:00 6.1 15 Noroeste 25 Noroeste 0 -- -- 65
2020-08-29 00:00:00 6.5 14 Noroeste 29 Noroeste 0 -- -- 66
2020-08-28 23:00:00 7 14 Noroeste 39 Norte 0 -- -- 69
2020-08-28 22:00:00 7.8 16 Noroeste 36 Norte 0 -- -- 65
2020-08-28 21:00:00 9 13 Noroeste 30 Noroeste 0 -- -- 62
2020-08-28 20:00:00 11.6 12 Noroeste 37 Noroeste 0 -- -- 58
2020-08-28 19:00:00 14.1 18 Noroeste 40 Noroeste 0 -- -- 54
2020-08-28 18:00:00 15.8 24 Oeste 44 Oeste 0 -- -- 52
2020-08-28 17:00:00 18.2 18 Noroeste 36 Norte 0 -- -- 50
2020-08-28 16:00:00 18.5 9 Noroeste 28 Noroeste 0 -- -- 59
2020-08-28 15:00:00 17.3 15 Noroeste 26 Noroeste 0 -- -- 61
2020-08-28 14:00:00 17.5 12 Oeste 33 Sudoeste 0 -- -- 62
2020-08-28 13:00:00 18.7 21 Oeste 32 Sudoeste 0 -- -- 63
2020-08-28 12:00:00 16.2 13 Oeste 22 Sudoeste 0 -- -- 68
2020-08-28 11:00:00 13.8 9 Oeste 21 Noroeste 0 -- -- 82
2020-08-28 10:00:00 14.9 6 Noroeste 14 Noroeste 0 -- -- 80
2020-08-28 09:00:00 12.9 5 Noroeste 14 Oeste 0 -- -- 94
2020-08-28 08:00:00 11.6 8 Oeste 15 Oeste 0 -- -- 97
2020-08-28 07:00:00 12.2 8 Sudoeste 19 Oeste 0 -- -- 97
2020-08-28 06:00:00 12.5 15 Oeste 22 Oeste 0 -- -- 96
2020-08-28 05:00:00 13.4 12 Oeste 18 Noroeste 0 -- -- 88
2020-08-28 04:00:00 13.7 10 Oeste 19 Oeste 0 -- -- 87
2020-08-28 03:00:00 13.8 12 Oeste 32 Noroeste 0 -- -- 90
2020-08-28 02:00:00 14.3 17 Oeste 25 Noroeste 0 -- -- 86
2020-08-28 01:00:00 14.9 12 Oeste 17 Noroeste 0 -- -- 89
2020-08-28 00:00:00 15.9 11 Noroeste 13 Noroeste 0 -- -- 88
2020-08-27 23:00:00 16.6 11 Noroeste 16 Noroeste 0 -- -- 86
2020-08-27 22:00:00 17.3 13 Oeste 20 Noroeste 0 -- -- 84
2020-08-27 21:00:00 18.4 14 Oeste 20 Oeste 0 -- -- 79
2020-08-27 20:00:00 19.8 10 Oeste 25 Noroeste 0 -- -- 74
2020-08-27 19:00:00 22.2 17 Oeste 40 Oeste 0 -- -- 50
2020-08-27 18:00:00 24.2 26 Oeste 41 Oeste 0 -- -- 45
2020-08-27 17:00:00 25.6 20 Oeste 40 Oeste 0 -- -- 42
2020-08-27 16:00:00 25.2 19 Oeste 34 Oeste 0 -- -- 42
2020-08-27 15:00:00 23.8 18 Oeste 31 Oeste 0 -- -- 43
2020-08-27 14:00:00 21.6 12 Oeste 25 Oeste 0 -- -- 53
2020-08-27 13:00:00 22.7 12 Oeste 26 Oeste 0 -- -- 44
2020-08-27 12:00:00 21.5 10 Oeste 22 Oeste 0 -- -- 54
2020-08-27 11:00:00 19.2 8 Oeste 14 Noroeste 0 -- -- 58
2020-08-27 10:00:00 17.6 8 Oeste 13 Oeste 0 -- -- 70
2020-08-27 09:00:00 16.5 8 Noroeste 9 Noroeste 0 -- -- 79
2020-08-27 08:00:00 14.1 4 Norte 10 Oeste 0 -- -- 93
2020-08-27 07:00:00 14 10 Noroeste 12 Noroeste 0 -- -- 94
2020-08-27 06:00:00 15.1 7 Oeste 10 Oeste 0 -- -- 82
2020-08-27 05:00:00 16.2 4 Oeste 7 Oeste 0 -- -- 75
2020-08-27 04:00:00 16.1 0 Calma 5 Noroeste 0 -- -- 77
2020-08-27 03:00:00 17.1 5 Oeste 8 Oeste 0 -- -- 71
2020-08-27 02:00:00 17.2 5 Sudeste 8 Sudeste 0 -- -- 68
2020-08-27 01:00:00 17.3 4 Este -- -- 0 -- -- 75
2020-08-27 00:00:00 17.9 5 Este 7 Este 0 -- -- 73
2020-08-26 23:00:00 17.3 7 Nordeste 12 Este 0 -- -- 77
2020-08-26 22:00:00 19.3 4 Nordeste 10 Oeste 0 -- -- 63
2020-08-26 21:00:00 20.7 5 Oeste 18 Oeste 0 -- -- 54
2020-08-26 20:00:00 22.8 13 Oeste 23 Oeste 0 -- -- 49
2020-08-26 19:00:00 24.5 15 Oeste 28 Oeste 0 -- -- 45
2020-08-26 18:00:00 25.2 10 Oeste 32 Oeste 0 -- -- 43
2020-08-26 17:00:00 25.3 19 Oeste 31 Noroeste 0 -- -- 42
2020-08-26 16:00:00 25.3 19 Oeste 32 Oeste 0 -- -- 41
2020-08-26 15:00:00 24.3 14 Noroeste 28 Oeste 0 -- -- 44
2020-08-26 14:00:00 23.6 13 Oeste 26 Oeste 0 -- -- 48
2020-08-26 13:00:00 22.9 13 Oeste 26 Oeste 0 -- -- 45
2020-08-26 12:00:00 21.4 13 Oeste 19 Oeste 0 -- -- 47
2020-08-26 11:00:00 21.1 4 Oeste 8 Noroeste 0 -- -- 54
2020-08-26 10:00:00 20.9 0 Calma 3 Este 0 -- -- 54
2020-08-26 09:00:00 20 0 Calma 4 Sur 0 -- -- 59
2020-08-26 08:00:00 15 0 Calma 4 Este 0 -- -- 70
2020-08-26 07:00:00 14.4 4 Este 9 Este 0 -- -- 69
2020-08-26 06:00:00 14.5 9 Este 12 Este 0 -- -- 72
2020-08-26 05:00:00 14.2 12 Este 16 Este 0 -- -- 77
2020-08-26 04:00:00 14.3 10 Este 12 Este 0 -- -- 82
2020-08-26 03:00:00 14.6 6 Este 10 Este 0 -- -- 80
2020-08-26 02:00:00 14.8 4 Este 10 Nordeste 0 -- -- 83
2020-08-26 01:00:00 14.6 6 Este 13 Nordeste 0 -- -- 85
2020-08-26 00:00:00 15.6 7 Nordeste 10 Este 0 -- -- 79